sensor_id;sensor_type;location;lat;lon;timestamp;P1;durP1;ratioP1;P2;durP2;ratioP2
16282;SDS011;8249;48.708;9.030;2023-02-15T00:00:47;6.90;;;4.93;;
16282;SDS011;8249;48.708;9.030;2023-02-15T00:03:15;7.03;;;4.57;;
16282;SDS011;8249;48.708;9.030;2023-02-15T00:05:42;4.73;;;4.10;;
16282;SDS011;8249;48.708;9.030;2023-02-15T00:08:09;5.13;;;4.73;;
16282;SDS011;8249;48.708;9.030;2023-02-15T00:10:36;4.73;;;4.37;;
16282;SDS011;8249;48.708;9.030;2023-02-15T00:13:03;7.60;;;4.90;;
16282;SDS011;8249;48.708;9.030;2023-02-15T00:15:30;4.20;;;3.97;;
16282;SDS011;8249;48.708;9.030;2023-02-15T00:17:59;5.30;;;4.20;;
16282;SDS011;8249;48.708;9.030;2023-02-15T00:20:25;5.53;;;5.13;;
16282;SDS011;8249;48.708;9.030;2023-02-15T00:22:53;5.33;;;3.40;;
16282;SDS011;8249;48.708;9.030;2023-02-15T00:25:20;4.03;;;3.73;;
16282;SDS011;8249;48.708;9.030;2023-02-15T00:27:46;4.17;;;3.80;;
16282;SDS011;8249;48.708;9.030;2023-02-15T00:30:13;4.57;;;4.27;;
16282;SDS011;8249;48.708;9.030;2023-02-15T00:32:40;3.93;;;3.73;;
16282;SDS011;8249;48.708;9.030;2023-02-15T00:35:09;4.40;;;4.20;;
16282;SDS011;8249;48.708;9.030;2023-02-15T00:37:36;3.90;;;3.67;;
16282;SDS011;8249;48.708;9.030;2023-02-15T00:40:03;4.83;;;4.43;;
16282;SDS011;8249;48.708;9.030;2023-02-15T00:42:31;5.00;;;4.60;;
16282;SDS011;8249;48.708;9.030;2023-02-15T00:44:58;4.10;;;3.70;;
16282;SDS011;8249;48.708;9.030;2023-02-15T00:47:27;8.90;;;3.73;;
16282;SDS011;8249;48.708;9.030;2023-02-15T00:49:54;3.53;;;3.23;;
16282;SDS011;8249;48.708;9.030;2023-02-15T00:52:23;10.30;;;5.83;;
16282;SDS011;8249;48.708;9.030;2023-02-15T00:54:50;4.87;;;4.03;;
16282;SDS011;8249;48.708;9.030;2023-02-15T00:57:17;4.93;;;4.63;;
16282;SDS011;8249;48.708;9.030;2023-02-15T00:59:44;5.53;;;4.20;;
16282;SDS011;8249;48.708;9.030;2023-02-15T01:02:11;3.97;;;3.67;;
16282;SDS011;8249;48.708;9.030;2023-02-15T01:04:39;4.97;;;4.67;;
16282;SDS011;8249;48.708;9.030;2023-02-15T01:07:06;5.63;;;5.13;;
16282;SDS011;8249;48.708;9.030;2023-02-15T01:09:34;7.30;;;4.80;;
16282;SDS011;8249;48.708;9.030;2023-02-15T01:12:02;4.67;;;4.23;;
16282;SDS011;8249;48.708;9.030;2023-02-15T01:14:29;3.13;;;2.83;;
16282;SDS011;8249;48.708;9.030;2023-02-15T01:16:56;5.17;;;4.63;;
16282;SDS011;8249;48.708;9.030;2023-02-15T01:19:23;3.67;;;3.47;;
16282;SDS011;8249;48.708;9.030;2023-02-15T01:21:50;7.00;;;4.20;;
16282;SDS011;8249;48.708;9.030;2023-02-15T01:24:17;4.27;;;3.97;;
16282;SDS011;8249;48.708;9.030;2023-02-15T01:26:45;2.93;;;2.83;;
16282;SDS011;8249;48.708;9.030;2023-02-15T01:29:12;3.87;;;3.67;;
16282;SDS011;8249;48.708;9.030;2023-02-15T01:31:39;8.03;;;4.20;;
16282;SDS011;8249;48.708;9.030;2023-02-15T01:34:06;7.50;;;4.97;;
16282;SDS011;8249;48.708;9.030;2023-02-15T01:36:33;5.20;;;4.83;;
16282;SDS011;8249;48.708;9.030;2023-02-15T01:39:00;4.87;;;4.57;;
16282;SDS011;8249;48.708;9.030;2023-02-15T01:41:30;3.87;;;3.77;;
16282;SDS011;8249;48.708;9.030;2023-02-15T01:44:01;5.67;;;5.37;;
16282;SDS011;8249;48.708;9.030;2023-02-15T01:46:30;4.80;;;4.37;;
16282;SDS011;8249;48.708;9.030;2023-02-15T01:49:02;2.80;;;2.63;;
16282;SDS011;8249;48.708;9.030;2023-02-15T01:51:33;5.57;;;5.10;;
16282;SDS011;8249;48.708;9.030;2023-02-15T01:54:05;3.97;;;3.53;;
16282;SDS011;8249;48.708;9.030;2023-02-15T01:56:37;7.10;;;5.57;;
16282;SDS011;8249;48.708;9.030;2023-02-15T01:59:13;5.67;;;4.00;;
16282;SDS011;8249;48.708;9.030;2023-02-15T02:01:43;5.20;;;4.43;;
16282;SDS011;8249;48.708;9.030;2023-02-15T02:04:12;4.67;;;3.93;;
16282;SDS011;8249;48.708;9.030;2023-02-15T02:06:44;3.13;;;3.03;;
16282;SDS011;8249;48.708;9.030;2023-02-15T02:09:14;8.47;;;5.63;;
16282;SDS011;8249;48.708;9.030;2023-02-15T02:11:41;5.17;;;4.13;;
16282;SDS011;8249;48.708;9.030;2023-02-15T02:14:14;5.67;;;3.73;;
16282;SDS011;8249;48.708;9.030;2023-02-15T02:16:44;4.37;;;3.07;;
16282;SDS011;8249;48.708;9.030;2023-02-15T02:19:37;4.87;;;4.20;;
16282;SDS011;8249;48.708;9.030;2023-02-15T02:25:34;5.63;;;5.13;;
16282;SDS011;8249;48.708;9.030;2023-02-15T02:28:22;3.63;;;3.40;;
16282;SDS011;8249;48.708;9.030;2023-02-15T02:31:17;5.43;;;4.00;;
16282;SDS011;8249;48.708;9.030;2023-02-15T02:34:00;4.30;;;4.10;;
16282;SDS011;8249;48.708;9.030;2023-02-15T02:36:35;3.70;;;3.43;;
16282;SDS011;8249;48.708;9.030;2023-02-15T02:39:10;4.00;;;3.73;;
16282;SDS011;8249;48.708;9.030;2023-02-15T02:41:49;9.80;;;3.77;;
16282;SDS011;8249;48.708;9.030;2023-02-15T02:44:22;4.77;;;3.97;;
16282;SDS011;8249;48.708;9.030;2023-02-15T02:46:53;4.80;;;4.40;;
16282;SDS011;8249;48.708;9.030;2023-02-15T02:49:33;5.63;;;3.93;;
16282;SDS011;8249;48.708;9.030;2023-02-15T02:52:03;3.20;;;3.00;;
16282;SDS011;8249;48.708;9.030;2023-02-15T02:54:32;5.30;;;3.43;;
16282;SDS011;8249;48.708;9.030;2023-02-15T02:57:02;10.37;;;4.60;;
16282;SDS011;8249;48.708;9.030;2023-02-15T02:59:32;6.87;;;4.53;;
16282;SDS011;8249;48.708;9.030;2023-02-15T03:02:04;5.50;;;5.10;;
16282;SDS011;8249;48.708;9.030;2023-02-15T03:04:39;7.57;;;3.67;;
16282;SDS011;8249;48.708;9.030;2023-02-15T03:07:10;4.33;;;4.03;;
16282;SDS011;8249;48.708;9.030;2023-02-15T03:09:40;4.07;;;3.77;;
16282;SDS011;8249;48.708;9.030;2023-02-15T03:12:13;8.07;;;3.57;;
16282;SDS011;8249;48.708;9.030;2023-02-15T03:14:46;5.00;;;4.40;;
16282;SDS011;8249;48.708;9.030;2023-02-15T03:17:15;5.07;;;4.60;;
16282;SDS011;8249;48.708;9.030;2023-02-15T03:19:47;4.43;;;4.07;;
16282;SDS011;8249;48.708;9.030;2023-02-15T03:22:19;4.67;;;4.30;;
16282;SDS011;8249;48.708;9.030;2023-02-15T03:24:56;3.73;;;3.50;;
16282;SDS011;8249;48.708;9.030;2023-02-15T03:27:27;3.70;;;3.40;;
16282;SDS011;8249;48.708;9.030;2023-02-15T03:30:00;10.87;;;3.83;;
16282;SDS011;8249;48.708;9.030;2023-02-15T03:32:31;4.23;;;3.90;;
16282;SDS011;8249;48.708;9.030;2023-02-15T03:35:02;4.27;;;3.87;;
16282;SDS011;8249;48.708;9.030;2023-02-15T03:37:30;4.33;;;4.07;;
16282;SDS011;8249;48.708;9.030;2023-02-15T03:40:03;4.57;;;3.13;;
16282;SDS011;8249;48.708;9.030;2023-02-15T03:42:51;4.47;;;4.07;;
16282;SDS011;8249;48.708;9.030;2023-02-15T03:45:25;7.67;;;5.20;;
16282;SDS011;8249;48.708;9.030;2023-02-15T03:47:55;5.07;;;3.90;;
16282;SDS011;8249;48.708;9.030;2023-02-15T03:50:27;5.70;;;5.30;;
16282;SDS011;8249;48.708;9.030;2023-02-15T03:53:15;5.40;;;4.93;;
16282;SDS011;8249;48.708;9.030;2023-02-15T03:55:46;3.83;;;3.53;;
16282;SDS011;8249;48.708;9.030;2023-02-15T03:58:13;3.90;;;3.60;;
16282;SDS011;8249;48.708;9.030;2023-02-15T04:00:58;5.27;;;3.57;;
16282;SDS011;8249;48.708;9.030;2023-02-15T04:03:49;4.07;;;3.70;;
16282;SDS011;8249;48.708;9.030;2023-02-15T04:06:24;3.60;;;3.30;;
16282;SDS011;8249;48.708;9.030;2023-02-15T04:08:51;3.93;;;3.63;;
16282;SDS011;8249;48.708;9.030;2023-02-15T04:11:35;4.10;;;3.80;;
16282;SDS011;8249;48.708;9.030;2023-02-15T04:14:02;4.03;;;3.73;;
16282;SDS011;8249;48.708;9.030;2023-02-15T04:16:50;3.87;;;3.67;;
16282;SDS011;8249;48.708;9.030;2023-02-15T04:19:16;5.33;;;4.57;;
16282;SDS011;8249;48.708;9.030;2023-02-15T04:22:02;7.30;;;5.67;;
16282;SDS011;8249;48.708;9.030;2023-02-15T04:24:46;4.07;;;3.07;;
16282;SDS011;8249;48.708;9.030;2023-02-15T04:27:31;4.67;;;4.47;;
16282;SDS011;8249;48.708;9.030;2023-02-15T04:29:58;3.70;;;3.40;;
16282;SDS011;8249;48.708;9.030;2023-02-15T04:32:25;5.57;;;4.17;;
16282;SDS011;8249;48.708;9.030;2023-02-15T04:34:52;7.20;;;4.60;;
16282;SDS011;8249;48.708;9.030;2023-02-15T04:37:21;5.33;;;4.53;;
16282;SDS011;8249;48.708;9.030;2023-02-15T04:39:48;4.87;;;4.50;;
16282;SDS011;8249;48.708;9.030;2023-02-15T04:42:16;5.33;;;4.60;;
16282;SDS011;8249;48.708;9.030;2023-02-15T04:44:43;6.47;;;5.27;;
16282;SDS011;8249;48.708;9.030;2023-02-15T04:47:10;6.43;;;4.73;;
16282;SDS011;8249;48.708;9.030;2023-02-15T04:49:37;3.87;;;3.57;;
16282;SDS011;8249;48.708;9.030;2023-02-15T04:52:04;4.47;;;4.07;;
16282;SDS011;8249;48.708;9.030;2023-02-15T04:54:32;4.57;;;3.37;;
16282;SDS011;8249;48.708;9.030;2023-02-15T04:56:59;4.00;;;3.77;;
16282;SDS011;8249;48.708;9.030;2023-02-15T04:59:26;3.17;;;3.07;;
16282;SDS011;8249;48.708;9.030;2023-02-15T05:01:53;3.27;;;3.17;;
16282;SDS011;8249;48.708;9.030;2023-02-15T05:04:20;4.60;;;4.03;;
16282;SDS011;8249;48.708;9.030;2023-02-15T05:06:47;3.70;;;3.50;;
16282;SDS011;8249;48.708;9.030;2023-02-15T05:09:14;5.57;;;5.00;;
16282;SDS011;8249;48.708;9.030;2023-02-15T05:11:43;2.93;;;2.83;;
16282;SDS011;8249;48.708;9.030;2023-02-15T05:14:09;3.50;;;3.30;;
16282;SDS011;8249;48.708;9.030;2023-02-15T05:16:36;3.90;;;3.70;;
16282;SDS011;8249;48.708;9.030;2023-02-15T05:19:03;3.80;;;3.53;;
16282;SDS011;8249;48.708;9.030;2023-02-15T05:21:31;4.77;;;4.47;;
16282;SDS011;8249;48.708;9.030;2023-02-15T05:23:58;3.67;;;3.47;;
16282;SDS011;8249;48.708;9.030;2023-02-15T05:26:25;6.90;;;4.13;;
16282;SDS011;8249;48.708;9.030;2023-02-15T05:29:11;4.20;;;4.00;;
16282;SDS011;8249;48.708;9.030;2023-02-15T05:31:38;3.83;;;3.53;;
16282;SDS011;8249;48.708;9.030;2023-02-15T05:34:05;3.80;;;3.50;;
16282;SDS011;8249;48.708;9.030;2023-02-15T05:36:32;4.40;;;4.10;;
16282;SDS011;8249;48.708;9.030;2023-02-15T05:38:59;4.73;;;4.33;;
16282;SDS011;8249;48.708;9.030;2023-02-15T05:41:25;2.90;;;2.70;;
16282;SDS011;8249;48.708;9.030;2023-02-15T05:43:54;4.93;;;4.23;;
16282;SDS011;8249;48.708;9.030;2023-02-15T05:46:22;4.20;;;4.00;;
16282;SDS011;8249;48.708;9.030;2023-02-15T05:48:49;6.27;;;4.17;;
16282;SDS011;8249;48.708;9.030;2023-02-15T05:51:16;3.77;;;3.57;;
16282;SDS011;8249;48.708;9.030;2023-02-15T05:53:43;4.47;;;4.17;;
16282;SDS011;8249;48.708;9.030;2023-02-15T05:56:10;7.43;;;4.20;;
16282;SDS011;8249;48.708;9.030;2023-02-15T05:58:39;6.33;;;5.80;;
16282;SDS011;8249;48.708;9.030;2023-02-15T06:01:07;6.03;;;4.93;;
16282;SDS011;8249;48.708;9.030;2023-02-15T06:03:36;4.43;;;4.10;;
16282;SDS011;8249;48.708;9.030;2023-02-15T06:06:04;4.90;;;4.57;;
16282;SDS011;8249;48.708;9.030;2023-02-15T06:08:31;5.47;;;5.00;;
16282;SDS011;8249;48.708;9.030;2023-02-15T06:10:59;4.13;;;3.77;;
16282;SDS011;8249;48.708;9.030;2023-02-15T06:13:26;5.70;;;5.20;;
16282;SDS011;8249;48.708;9.030;2023-02-15T06:15:53;5.40;;;4.37;;
16282;SDS011;8249;48.708;9.030;2023-02-15T06:18:20;7.40;;;5.13;;
16282;SDS011;8249;48.708;9.030;2023-02-15T06:20:49;6.73;;;4.50;;
16282;SDS011;8249;48.708;9.030;2023-02-15T06:23:16;3.30;;;3.03;;
16282;SDS011;8249;48.708;9.030;2023-02-15T06:25:44;3.60;;;3.37;;
16282;SDS011;8249;48.708;9.030;2023-02-15T06:28:11;4.07;;;3.87;;
16282;SDS011;8249;48.708;9.030;2023-02-15T06:30:39;3.73;;;3.43;;
16282;SDS011;8249;48.708;9.030;2023-02-15T06:33:06;3.73;;;3.53;;
16282;SDS011;8249;48.708;9.030;2023-02-15T06:35:33;4.17;;;3.83;;
16282;SDS011;8249;48.708;9.030;2023-02-15T06:38:01;6.40;;;4.93;;
16282;SDS011;8249;48.708;9.030;2023-02-15T06:40:28;4.17;;;3.77;;
16282;SDS011;8249;48.708;9.030;2023-02-15T06:42:55;3.90;;;3.47;;
16282;SDS011;8249;48.708;9.030;2023-02-15T06:45:22;3.40;;;3.10;;
16282;SDS011;8249;48.708;9.030;2023-02-15T06:47:50;5.10;;;4.40;;
16282;SDS011;8249;48.708;9.030;2023-02-15T06:50:17;4.70;;;3.33;;
16282;SDS011;8249;48.708;9.030;2023-02-15T06:52:44;3.47;;;3.20;;
16282;SDS011;8249;48.708;9.030;2023-02-15T06:55:12;4.60;;;4.30;;
16282;SDS011;8249;48.708;9.030;2023-02-15T06:57:39;4.07;;;3.67;;
16282;SDS011;8249;48.708;9.030;2023-02-15T07:00:07;5.43;;;3.43;;
16282;SDS011;8249;48.708;9.030;2023-02-15T07:02:35;3.37;;;3.17;;
16282;SDS011;8249;48.708;9.030;2023-02-15T07:05:02;6.70;;;5.07;;
16282;SDS011;8249;48.708;9.030;2023-02-15T07:07:30;4.07;;;3.83;;
16282;SDS011;8249;48.708;9.030;2023-02-15T07:09:57;3.77;;;3.33;;
16282;SDS011;8249;48.708;9.030;2023-02-15T07:12:25;3.87;;;3.47;;
16282;SDS011;8249;48.708;9.030;2023-02-15T07:15:11;3.63;;;3.47;;
16282;SDS011;8249;48.708;9.030;2023-02-15T07:17:40;4.03;;;3.67;;
16282;SDS011;8249;48.708;9.030;2023-02-15T07:20:08;4.43;;;4.13;;
16282;SDS011;8249;48.708;9.030;2023-02-15T07:22:37;3.40;;;3.07;;
16282;SDS011;8249;48.708;9.030;2023-02-15T07:25:04;5.13;;;4.63;;
16282;SDS011;8249;48.708;9.030;2023-02-15T07:27:33;3.03;;;2.83;;
16282;SDS011;8249;48.708;9.030;2023-02-15T07:30:00;3.40;;;3.20;;
16282;SDS011;8249;48.708;9.030;2023-02-15T07:32:27;3.67;;;3.47;;
16282;SDS011;8249;48.708;9.030;2023-02-15T07:34:55;5.33;;;2.97;;
16282;SDS011;8249;48.708;9.030;2023-02-15T07:37:22;3.73;;;3.53;;
16282;SDS011;8249;48.708;9.030;2023-02-15T07:39:49;4.10;;;3.80;;
16282;SDS011;8249;48.708;9.030;2023-02-15T07:42:17;3.60;;;2.57;;
16282;SDS011;8249;48.708;9.030;2023-02-15T07:44:47;7.93;;;3.37;;
16282;SDS011;8249;48.708;9.030;2023-02-15T07:47:14;4.30;;;3.93;;
16282;SDS011;8249;48.708;9.030;2023-02-15T07:49:41;3.57;;;3.23;;
16282;SDS011;8249;48.708;9.030;2023-02-15T07:52:08;4.90;;;4.47;;
16282;SDS011;8249;48.708;9.030;2023-02-15T07:54:35;3.87;;;3.63;;
16282;SDS011;8249;48.708;9.030;2023-02-15T07:57:02;5.90;;;3.33;;
16282;SDS011;8249;48.708;9.030;2023-02-15T07:59:29;4.33;;;3.93;;
16282;SDS011;8249;48.708;9.030;2023-02-15T08:01:57;22.73;;;4.07;;
16282;SDS011;8249;48.708;9.030;2023-02-15T08:04:24;5.07;;;4.77;;
16282;SDS011;8249;48.708;9.030;2023-02-15T08:06:52;3.90;;;3.60;;
16282;SDS011;8249;48.708;9.030;2023-02-15T08:09:20;4.20;;;3.87;;
16282;SDS011;8249;48.708;9.030;2023-02-15T08:11:47;5.23;;;4.60;;
16282;SDS011;8249;48.708;9.030;2023-02-15T08:14:15;4.77;;;3.77;;
16282;SDS011;8249;48.708;9.030;2023-02-15T08:16:44;6.17;;;4.20;;
16282;SDS011;8249;48.708;9.030;2023-02-15T08:19:14;7.03;;;3.80;;
16282;SDS011;8249;48.708;9.030;2023-02-15T08:21:43;6.80;;;3.23;;
16282;SDS011;8249;48.708;9.030;2023-02-15T08:24:12;4.80;;;4.50;;
16282;SDS011;8249;48.708;9.030;2023-02-15T08:26:41;9.30;;;4.80;;
16282;SDS011;8249;48.708;9.030;2023-02-15T08:29:10;6.63;;;4.57;;
16282;SDS011;8249;48.708;9.030;2023-02-15T08:31:37;5.33;;;4.40;;
16282;SDS011;8249;48.708;9.030;2023-02-15T08:34:06;5.33;;;4.83;;
16282;SDS011;8249;48.708;9.030;2023-02-15T08:36:35;4.87;;;3.97;;
16282;SDS011;8249;48.708;9.030;2023-02-15T08:39:03;3.67;;;3.33;;
16282;SDS011;8249;48.708;9.030;2023-02-15T08:41:31;4.20;;;3.90;;
16282;SDS011;8249;48.708;9.030;2023-02-15T08:44:00;4.67;;;4.20;;
16282;SDS011;8249;48.708;9.030;2023-02-15T08:46:28;7.50;;;4.03;;
16282;SDS011;8249;48.708;9.030;2023-02-15T08:48:56;4.80;;;3.53;;
16282;SDS011;8249;48.708;9.030;2023-02-15T08:51:24;8.07;;;4.07;;
16282;SDS011;8249;48.708;9.030;2023-02-15T08:53:55;6.43;;;5.10;;
16282;SDS011;8249;48.708;9.030;2023-02-15T08:56:25;7.70;;;4.77;;
16282;SDS011;8249;48.708;9.030;2023-02-15T08:58:53;5.17;;;4.53;;
16282;SDS011;8249;48.708;9.030;2023-02-15T09:01:20;5.33;;;4.77;;
16282;SDS011;8249;48.708;9.030;2023-02-15T09:03:49;9.03;;;4.07;;
16282;SDS011;8249;48.708;9.030;2023-02-15T09:06:18;5.93;;;4.27;;
16282;SDS011;8249;48.708;9.030;2023-02-15T09:08:46;3.93;;;3.63;;
16282;SDS011;8249;48.708;9.030;2023-02-15T09:11:15;4.47;;;4.07;;
16282;SDS011;8249;48.708;9.030;2023-02-15T09:13:48;4.57;;;4.27;;
16282;SDS011;8249;48.708;9.030;2023-02-15T09:16:16;6.03;;;4.10;;
16282;SDS011;8249;48.708;9.030;2023-02-15T09:18:43;4.57;;;3.73;;
16282;SDS011;8249;48.708;9.030;2023-02-15T09:21:10;7.30;;;4.53;;
16282;SDS011;8249;48.708;9.030;2023-02-15T09:23:39;4.50;;;4.10;;
16282;SDS011;8249;48.708;9.030;2023-02-15T09:26:07;7.70;;;4.68;;
16282;SDS011;8249;48.708;9.030;2023-02-15T09:28:37;4.03;;;3.65;;
16282;SDS011;8249;48.708;9.030;2023-02-15T09:31:06;4.45;;;3.63;;
16282;SDS011;8249;48.708;9.030;2023-02-15T09:33:35;4.07;;;3.35;;
16282;SDS011;8249;48.708;9.030;2023-02-15T09:36:02;5.20;;;3.42;;
16282;SDS011;8249;48.708;9.030;2023-02-15T09:38:30;3.80;;;3.38;;
16282;SDS011;8249;48.708;9.030;2023-02-15T09:41:00;6.20;;;3.97;;
16282;SDS011;8249;48.708;9.030;2023-02-15T09:43:39;4.10;;;3.78;;
16282;SDS011;8249;48.708;9.030;2023-02-15T09:46:24;6.20;;;3.90;;
16282;SDS011;8249;48.708;9.030;2023-02-15T09:49:02;3.92;;;3.55;;
16282;SDS011;8249;48.708;9.030;2023-02-15T09:51:44;4.53;;;3.33;;
16282;SDS011;8249;48.708;9.030;2023-02-15T09:54:33;4.95;;;3.58;;
16282;SDS011;8249;48.708;9.030;2023-02-15T09:57:08;5.45;;;4.18;;
16282;SDS011;8249;48.708;9.030;2023-02-15T09:59:44;3.95;;;3.40;;
16282;SDS011;8249;48.708;9.030;2023-02-15T10:02:24;3.50;;;3.22;;
16282;SDS011;8249;48.708;9.030;2023-02-15T10:05:05;4.30;;;3.30;;
16282;SDS011;8249;48.708;9.030;2023-02-15T10:07:47;3.35;;;3.13;;
16282;SDS011;8249;48.708;9.030;2023-02-15T10:10:38;4.75;;;3.47;;
16282;SDS011;8249;48.708;9.030;2023-02-15T10:13:15;3.60;;;2.92;;
16282;SDS011;8249;48.708;9.030;2023-02-15T10:15:59;4.25;;;3.65;;
16282;SDS011;8249;48.708;9.030;2023-02-15T10:18:40;4.88;;;3.05;;
16282;SDS011;8249;48.708;9.030;2023-02-15T10:21:17;2.97;;;2.78;;
16282;SDS011;8249;48.708;9.030;2023-02-15T10:24:18;5.70;;;3.53;;
16282;SDS011;8249;48.708;9.030;2023-02-15T10:26:58;6.75;;;3.83;;
16282;SDS011;8249;48.708;9.030;2023-02-15T10:29:34;4.32;;;3.75;;
16282;SDS011;8249;48.708;9.030;2023-02-15T10:32:09;12.75;;;3.38;;
16282;SDS011;8249;48.708;9.030;2023-02-15T10:34:43;4.80;;;2.97;;
16282;SDS011;8249;48.708;9.030;2023-02-15T10:37:29;2.70;;;2.50;;
16282;SDS011;8249;48.708;9.030;2023-02-15T10:40:21;4.63;;;3.00;;
16282;SDS011;8249;48.708;9.030;2023-02-15T10:43:07;4.75;;;3.10;;
16282;SDS011;8249;48.708;9.030;2023-02-15T10:45:48;2.95;;;2.60;;
16282;SDS011;8249;48.708;9.030;2023-02-15T10:48:25;3.13;;;2.83;;
16282;SDS011;8249;48.708;9.030;2023-02-15T10:51:10;2.83;;;2.63;;
16282;SDS011;8249;48.708;9.030;2023-02-15T10:53:51;3.78;;;3.25;;
16282;SDS011;8249;48.708;9.030;2023-02-15T10:56:30;3.00;;;2.70;;
16282;SDS011;8249;48.708;9.030;2023-02-15T10:59:06;3.08;;;2.38;;
16282;SDS011;8249;48.708;9.030;2023-02-15T11:01:53;3.03;;;2.83;;
16282;SDS011;8249;48.708;9.030;2023-02-15T11:04:39;3.38;;;2.88;;
16282;SDS011;8249;48.708;9.030;2023-02-15T11:07:23;3.25;;;2.80;;
16282;SDS011;8249;48.708;9.030;2023-02-15T11:09:54;3.83;;;2.80;;
16282;SDS011;8249;48.708;9.030;2023-02-15T11:12:27;3.03;;;2.63;;
16282;SDS011;8249;48.708;9.030;2023-02-15T11:14:59;3.75;;;2.47;;
16282;SDS011;8249;48.708;9.030;2023-02-15T11:17:33;4.78;;;3.00;;
16282;SDS011;8249;48.708;9.030;2023-02-15T11:20:12;3.08;;;2.88;;
16282;SDS011;8249;48.708;9.030;2023-02-15T11:22:46;2.85;;;2.65;;
16282;SDS011;8249;48.708;9.030;2023-02-15T11:25:17;9.45;;;3.10;;
16282;SDS011;8249;48.708;9.030;2023-02-15T11:27:49;2.92;;;2.42;;
16282;SDS011;8249;48.708;9.030;2023-02-15T11:30:19;2.53;;;2.33;;
16282;SDS011;8249;48.708;9.030;2023-02-15T11:32:48;3.58;;;3.13;;
16282;SDS011;8249;48.708;9.030;2023-02-15T11:35:22;3.10;;;2.83;;
16282;SDS011;8249;48.708;9.030;2023-02-15T11:37:54;4.07;;;2.72;;
16282;SDS011;8249;48.708;9.030;2023-02-15T11:40:28;4.15;;;3.47;;
16282;SDS011;8249;48.708;9.030;2023-02-15T11:42:58;3.67;;;2.83;;
16282;SDS011;8249;48.708;9.030;2023-02-15T11:45:30;3.47;;;3.17;;
16282;SDS011;8249;48.708;9.030;2023-02-15T11:47:59;3.33;;;2.95;;
16282;SDS011;8249;48.708;9.030;2023-02-15T11:50:31;3.17;;;2.33;;
16282;SDS011;8249;48.708;9.030;2023-02-15T11:52:59;3.17;;;2.55;;
16282;SDS011;8249;48.708;9.030;2023-02-15T11:55:28;2.90;;;2.10;;
16282;SDS011;8249;48.708;9.030;2023-02-15T11:57:57;4.93;;;2.38;;
16282;SDS011;8249;48.708;9.030;2023-02-15T12:00:32;4.95;;;2.83;;
16282;SDS011;8249;48.708;9.030;2023-02-15T12:03:05;2.95;;;2.72;;
16282;SDS011;8249;48.708;9.030;2023-02-15T12:05:40;2.80;;;2.53;;
16282;SDS011;8249;48.708;9.030;2023-02-15T12:08:12;4.13;;;2.80;;
16282;SDS011;8249;48.708;9.030;2023-02-15T12:10:44;4.18;;;2.75;;
16282;SDS011;8249;48.708;9.030;2023-02-15T12:13:19;2.85;;;2.65;;
16282;SDS011;8249;48.708;9.030;2023-02-15T12:15:48;3.25;;;2.67;;
16282;SDS011;8249;48.708;9.030;2023-02-15T12:18:18;3.97;;;3.25;;
16282;SDS011;8249;48.708;9.030;2023-02-15T12:20:49;3.67;;;3.30;;
16282;SDS011;8249;48.708;9.030;2023-02-15T12:23:16;2.95;;;2.65;;
16282;SDS011;8249;48.708;9.030;2023-02-15T12:25:49;3.58;;;3.08;;
16282;SDS011;8249;48.708;9.030;2023-02-15T12:28:23;2.70;;;2.50;;
16282;SDS011;8249;48.708;9.030;2023-02-15T12:30:53;4.03;;;2.53;;
16282;SDS011;8249;48.708;9.030;2023-02-15T12:33:24;3.30;;;2.63;;
16282;SDS011;8249;48.708;9.030;2023-02-15T12:35:57;4.97;;;1.88;;
16282;SDS011;8249;48.708;9.030;2023-02-15T12:38:28;4.68;;;2.50;;
16282;SDS011;8249;48.708;9.030;2023-02-15T12:40:59;4.47;;;2.78;;
16282;SDS011;8249;48.708;9.030;2023-02-15T12:43:30;10.13;;;2.53;;
16282;SDS011;8249;48.708;9.030;2023-02-15T12:46:13;2.63;;;2.40;;
16282;SDS011;8249;48.708;9.030;2023-02-15T12:48:46;2.22;;;1.85;;
16282;SDS011;8249;48.708;9.030;2023-02-15T12:51:15;2.10;;;2.00;;
16282;SDS011;8249;48.708;9.030;2023-02-15T12:53:42;2.88;;;2.00;;
16282;SDS011;8249;48.708;9.030;2023-02-15T12:56:12;2.78;;;2.42;;
16282;SDS011;8249;48.708;9.030;2023-02-15T12:58:58;3.15;;;2.40;;
16282;SDS011;8249;48.708;9.030;2023-02-15T13:01:33;1.92;;;1.83;;
16282;SDS011;8249;48.708;9.030;2023-02-15T13:04:02;3.53;;;2.08;;
16282;SDS011;8249;48.708;9.030;2023-02-15T13:06:33;2.20;;;2.10;;
16282;SDS011;8249;48.708;9.030;2023-02-15T13:09:06;2.55;;;2.00;;
16282;SDS011;8249;48.708;9.030;2023-02-15T13:11:40;2.92;;;1.90;;
16282;SDS011;8249;48.708;9.030;2023-02-15T13:14:15;2.05;;;1.95;;
16282;SDS011;8249;48.708;9.030;2023-02-15T13:16:44;2.40;;;2.13;;
16282;SDS011;8249;48.708;9.030;2023-02-15T13:19:14;4.10;;;3.05;;
16282;SDS011;8249;48.708;9.030;2023-02-15T13:21:45;2.22;;;2.10;;
16282;SDS011;8249;48.708;9.030;2023-02-15T13:24:17;2.55;;;2.25;;
16282;SDS011;8249;48.708;9.030;2023-02-15T13:26:48;2.97;;;2.70;;
16282;SDS011;8249;48.708;9.030;2023-02-15T13:29:17;2.47;;;2.35;;
16282;SDS011;8249;48.708;9.030;2023-02-15T13:31:48;3.45;;;2.90;;
16282;SDS011;8249;48.708;9.030;2023-02-15T13:34:19;4.60;;;2.20;;
16282;SDS011;8249;48.708;9.030;2023-02-15T13:36:53;3.35;;;2.22;;
16282;SDS011;8249;48.708;9.030;2023-02-15T13:39:29;3.45;;;1.77;;
16282;SDS011;8249;48.708;9.030;2023-02-15T13:42:05;2.38;;;2.17;;
16282;SDS011;8249;48.708;9.030;2023-02-15T13:44:53;2.40;;;2.22;;
16282;SDS011;8249;48.708;9.030;2023-02-15T13:47:28;2.08;;;1.98;;
16282;SDS011;8249;48.708;9.030;2023-02-15T13:52:51;2.42;;;2.22;;
16282;SDS011;8249;48.708;9.030;2023-02-15T13:55:30;2.65;;;2.42;;
16282;SDS011;8249;48.708;9.030;2023-02-15T13:58:10;4.78;;;2.75;;
16282;SDS011;8249;48.708;9.030;2023-02-15T14:01:08;6.68;;;3.33;;
16282;SDS011;8249;48.708;9.030;2023-02-15T14:03:49;2.50;;;2.30;;
16282;SDS011;8249;48.708;9.030;2023-02-15T14:06:31;11.90;;;2.90;;
16282;SDS011;8249;48.708;9.030;2023-02-15T14:09:13;3.35;;;2.85;;
16282;SDS011;8249;48.708;9.030;2023-02-15T14:11:52;5.25;;;3.00;;
16282;SDS011;8249;48.708;9.030;2023-02-15T14:17:28;3.38;;;3.08;;
16282;SDS011;8249;48.708;9.030;2023-02-15T14:20:05;3.28;;;2.97;;
16282;SDS011;8249;48.708;9.030;2023-02-15T14:22:41;4.10;;;3.70;;
16282;SDS011;8249;48.708;9.030;2023-02-15T14:25:18;3.65;;;2.97;;
16282;SDS011;8249;48.708;9.030;2023-02-15T14:27:54;4.32;;;4.03;;
16282;SDS011;8249;48.708;9.030;2023-02-15T14:30:30;5.32;;;3.00;;
16282;SDS011;8249;48.708;9.030;2023-02-15T14:33:01;3.38;;;2.90;;
16282;SDS011;8249;48.708;9.030;2023-02-15T14:35:31;4.40;;;3.13;;
16282;SDS011;8249;48.708;9.030;2023-02-15T14:38:01;3.38;;;2.72;;
16282;SDS011;8249;48.708;9.030;2023-02-15T14:40:37;2.63;;;2.42;;
16282;SDS011;8249;48.708;9.030;2023-02-15T14:43:33;3.58;;;3.28;;
16282;SDS011;8249;48.708;9.030;2023-02-15T14:46:16;3.42;;;3.00;;
16282;SDS011;8249;48.708;9.030;2023-02-15T14:49:10;3.90;;;3.10;;
16282;SDS011;8249;48.708;9.030;2023-02-15T14:51:55;6.85;;;3.33;;
16282;SDS011;8249;48.708;9.030;2023-02-15T14:57:29;5.47;;;3.60;;
16282;SDS011;8249;48.708;9.030;2023-02-15T14:59:59;4.05;;;3.67;;
16282;SDS011;8249;48.708;9.030;2023-02-15T15:02:43;5.40;;;2.85;;
16282;SDS011;8249;48.708;9.030;2023-02-15T15:05:16;3.03;;;2.80;;
16282;SDS011;8249;48.708;9.030;2023-02-15T15:07:45;3.35;;;2.95;;
16282;SDS011;8249;48.708;9.030;2023-02-15T15:16:28;5.25;;;3.67;;
16282;SDS011;8249;48.708;9.030;2023-02-15T15:18:58;5.63;;;4.68;;
16282;SDS011;8249;48.708;9.030;2023-02-15T15:42:48;4.50;;;3.97;;
16282;SDS011;8249;48.708;9.030;2023-02-15T15:45:26;5.20;;;4.00;;
16282;SDS011;8249;48.708;9.030;2023-02-15T15:48:12;6.03;;;4.32;;
16282;SDS011;8249;48.708;9.030;2023-02-15T15:50:56;5.88;;;4.43;;
16282;SDS011;8249;48.708;9.030;2023-02-15T15:53:25;9.40;;;5.00;;
16282;SDS011;8249;48.708;9.030;2023-02-15T15:55:56;6.15;;;5.07;;
16282;SDS011;8249;48.708;9.030;2023-02-15T15:58:26;4.80;;;4.35;;
16282;SDS011;8249;48.708;9.030;2023-02-15T16:00:55;5.80;;;4.63;;
16282;SDS011;8249;48.708;9.030;2023-02-15T16:03:31;4.78;;;4.28;;
16282;SDS011;8249;48.708;9.030;2023-02-15T16:05:57;5.80;;;4.32;;
16282;SDS011;8249;48.708;9.030;2023-02-15T16:08:26;6.65;;;4.95;;